Main page
METAR-TAF:

METAR-TAF

Airports :

Waterford Airport

Waterford, Ireland

latitude: 52-11-14N, longitude: 7-05-13W, elevation: 36 m

Current weather observation

The report was made 36 minutes ago, at 09:30 UTC
Wind 4 kt from the Northwest, varying between West and North
Temperature
Pressure 1035 hPa
Visibility 10 km or more
Few clouds at a height of 3000 ft

METAR: EIWF 240930Z 31004KT 270V350 9999 FEW030 ///// Q1035

Time: 10:06 (10:06 UTC)

Forecast

The report was made 2 hours and 6 minutes ago, at 08:00 UTC
Forecast valid from 24 at 09 UTC to 24 at 18 UTC
Wind 6 kt from the West/Northwest
Visibility 10 km or more
Few clouds at a height of 2500 ft
Becoming
from 24 at 11 UTC to 24 at 14 UTC
Wind 13 kt from the North/Northwest

TAF: EIWF 240800Z 2409/2418 30006KT 9999 FEW025 BECMG 2411/2414 33013KT

Weather observations and forecasts of more than 4000 airports (METAR and TAF reports).

The available stations are represented by yellow and red dots on the map.

Hover mouse over dot to see the name of the station.

Then click to see weather observations and forecasts.

To change the map : click on the green buttons with a black cross to zoom in, on the green button with a dash to zoom out, or on the green arrows for adjacent maps.


METAR-TAF: